createdAt,value
2018-04-12T00:03:10.961Z,14.3
2018-04-12T00:09:01.594Z,10.99
2018-04-12T00:14:52.329Z,11.99
2018-04-12T00:20:42.996Z,14.23
2018-04-12T00:26:33.674Z,13.92
2018-04-12T00:32:24.365Z,15.75
2018-04-12T00:38:15.002Z,19.21
2018-04-12T00:44:05.678Z,19.5
2018-04-12T00:49:56.367Z,21.31
2018-04-12T00:55:47.073Z,25.13
2018-04-12T01:01:37.706Z,26.07
2018-04-12T01:07:28.478Z,25.02
2018-04-12T01:13:19.090Z,25.7
2018-04-12T01:19:09.805Z,28.03
2018-04-12T01:25:00.472Z,25.33
2018-04-12T01:30:51.145Z,22.45
2018-04-12T01:36:41.816Z,21.64
2018-04-12T01:42:32.460Z,22.05
2018-04-12T01:48:23.124Z,19.1
2018-04-12T01:54:13.815Z,19.02
2018-04-12T02:00:04.474Z,17.67
2018-04-12T02:05:55.159Z,18.24
2018-04-12T02:11:45.857Z,17.3
2018-04-12T02:17:36.513Z,17.19
2018-04-12T02:23:27.244Z,14.89
2018-04-12T02:29:17.880Z,12.33
2018-04-12T02:35:08.626Z,11.76
2018-04-12T02:40:59.229Z,11.46
2018-04-12T02:46:49.878Z,12.7
2018-04-12T02:52:40.560Z,11
2018-04-12T02:58:31.269Z,11.73
2018-04-12T03:04:21.902Z,12.45
2018-04-12T03:10:12.589Z,15.31
2018-04-12T03:16:03.300Z,14.29
2018-04-12T03:21:53.916Z,14.42
2018-04-12T03:27:44.570Z,14.63
2018-04-12T03:33:35.242Z,15.24
2018-04-12T03:39:25.943Z,15.29
2018-04-12T03:45:16.560Z,16.05
2018-04-12T03:51:07.259Z,14.81
2018-04-12T03:56:57.951Z,15.37
2018-04-12T04:02:48.622Z,16.8
2018-04-12T04:08:39.274Z,17.5
2018-04-12T04:14:29.939Z,14.35
2018-04-12T04:20:20.560Z,11.93
2018-04-12T04:26:11.282Z,12.89
2018-04-12T04:32:01.942Z,13.42
2018-04-12T04:37:52.633Z,14.13
2018-04-12T04:43:43.221Z,13.04
2018-04-12T04:49:33.865Z,15.2
2018-04-12T04:55:24.568Z,14.47
2018-04-12T05:01:15.221Z,15.1
2018-04-12T05:07:05.855Z,15.25
2018-04-12T05:12:56.587Z,14.28
2018-04-12T05:18:47.183Z,17.34
2018-04-12T05:24:37.872Z,20.09
2018-04-12T05:30:28.568Z,16.34
2018-04-12T05:36:19.225Z,15.75
2018-04-12T05:42:09.844Z,16.77
2018-04-12T05:48:00.501Z,15.89
2018-04-12T05:53:51.163Z,15.01
2018-04-12T05:59:41.832Z,15.66
2018-04-12T06:05:32.498Z,17.67
2018-04-12T06:11:23.197Z,17.67
2018-04-12T06:17:13.820Z,18.64
2018-04-12T06:23:04.491Z,22.28
2018-04-12T06:28:55.189Z,19.21
2018-04-12T06:34:45.838Z,18.77
2018-04-12T06:40:36.517Z,19.1
2018-04-12T06:46:27.178Z,22.22
2018-04-12T06:52:17.830Z,21.34
2018-04-12T06:58:08.536Z,24.21
2018-04-12T07:03:59.211Z,21.95
2018-04-12T07:09:49.833Z,24.07
2018-04-12T07:15:40.536Z,23.9
2018-04-12T07:21:31.220Z,22.51
2018-04-12T07:27:21.891Z,19.36
2018-04-12T07:33:12.585Z,20.34
2018-04-12T07:39:03.167Z,22.62
2018-04-12T07:44:53.878Z,24.36
2018-04-12T07:50:44.521Z,20.56
2018-04-12T07:56:35.244Z,23.69
2018-04-12T08:02:25.941Z,18.7
2018-04-12T08:08:16.671Z,20.19
2018-04-12T08:14:07.313Z,19.71
2018-04-12T08:19:57.924Z,24.14
2018-04-12T08:25:48.635Z,23.19
2018-04-12T08:31:39.299Z,25.39
2018-04-12T08:37:30.053Z,29.42
2018-04-12T08:43:20.690Z,32.4
2018-04-12T08:49:11.394Z,33.58
2018-04-12T08:55:01.996Z,34.16
2018-04-12T09:00:52.658Z,33.64
2018-04-12T09:06:43.221Z,28.85
2018-04-12T09:12:33.830Z,24.07
2018-04-12T09:18:24.443Z,24.31
2018-04-12T09:24:14.997Z,36.8
2018-04-12T09:30:05.599Z,13.54
2018-04-12T09:35:56.157Z,12.31
2018-04-12T09:41:46.721Z,11.75
2018-04-12T09:47:37.378Z,8.04
2018-04-12T09:53:27.908Z,7.33
2018-04-12T09:59:18.517Z,8
2018-04-12T10:05:09.151Z,7.33
2018-04-12T10:10:59.698Z,6.78
2018-04-12T10:16:50.338Z,5.11
2018-04-12T10:22:40.910Z,5.51
2018-04-12T10:28:31.504Z,5.57
2018-04-12T10:34:22.101Z,5.96
2018-04-12T10:40:12.684Z,6.05
2018-04-12T10:46:03.325Z,5.01
2018-04-12T10:51:53.921Z,4.66
2018-04-12T10:57:44.507Z,3.85
2018-04-12T11:03:35.157Z,3.58
2018-04-12T11:09:25.708Z,4.87
2018-04-12T11:15:16.355Z,3.91
2018-04-12T11:21:06.967Z,5.57
2018-04-12T11:26:57.590Z,4.82
2018-04-12T11:32:48.214Z,6.05
2018-04-12T11:38:38.827Z,4.8
2018-04-12T11:44:29.473Z,5.81
2018-04-12T11:50:20.023Z,4.51
2018-04-12T11:56:10.689Z,4.39
2018-04-12T12:02:01.273Z,4.36
2018-04-12T12:07:51.902Z,6.17
2018-04-12T12:13:42.529Z,4.46
2018-04-12T12:19:33.111Z,4.04
2018-04-12T12:25:23.767Z,3.81
2018-04-12T12:31:19.453Z,3.67
2018-04-12T12:42:57.751Z,3.84
2018-04-12T12:48:48.221Z,4.68
2018-04-12T12:54:38.850Z,4.61
2018-04-12T13:00:29.458Z,4.26
2018-04-12T13:06:20.066Z,4.09
2018-04-12T13:12:10.697Z,3.59
2018-04-12T13:18:01.357Z,4.18
2018-04-12T13:23:51.960Z,5.08
2018-04-12T13:29:42.606Z,5.45
2018-04-12T13:35:33.156Z,5.35
2018-04-12T13:41:23.765Z,5.15
2018-04-12T13:47:14.412Z,4.19
2018-04-12T13:53:04.981Z,4.39
2018-04-12T13:58:55.637Z,4.67
2018-04-12T14:04:46.247Z,4.35
2018-04-12T14:10:36.821Z,6.28
2018-04-12T14:16:27.477Z,7.32
2018-04-12T14:22:18.091Z,5.55
2018-04-12T14:28:08.708Z,4.1
2018-04-12T14:33:59.285Z,4.69
2018-04-12T14:39:49.923Z,4.36
2018-04-12T14:45:40.541Z,5.23
2018-04-12T14:51:31.141Z,4.4
2018-04-12T14:57:21.726Z,4.62
2018-04-12T15:03:12.347Z,4.19
2018-04-12T15:09:02.990Z,6.42
2018-04-12T15:14:53.545Z,5.29
2018-04-12T15:20:44.182Z,8.88
2018-04-12T15:26:34.759Z,10.71
2018-04-12T15:32:25.368Z,8.04
2018-04-12T15:38:16.039Z,6.86
2018-04-12T15:44:06.655Z,6.19
2018-04-12T15:49:57.170Z,6.52
2018-04-12T15:55:47.755Z,7.31
2018-04-12T16:01:38.369Z,6.1
2018-04-12T16:07:28.937Z,6.08
2018-04-12T16:13:19.658Z,5.41
2018-04-12T16:19:10.252Z,5.9
2018-04-12T16:25:00.987Z,5.67
2018-04-12T16:30:51.665Z,5.57
2018-04-12T16:36:42.318Z,5.54
2018-04-12T16:42:33.045Z,5.54
2018-04-12T16:48:23.604Z,5.71
2018-04-12T16:54:14.286Z,6.12
2018-04-12T17:00:04.845Z,5.97
2018-04-12T17:05:55.505Z,5.66
2018-04-12T17:11:46.077Z,5.61
2018-04-12T17:17:36.732Z,5.67
2018-04-12T17:23:27.323Z,6.13
2018-04-12T17:29:17.910Z,5.56
2018-04-12T17:35:08.476Z,8.02
2018-04-12T17:40:59.065Z,6.75
2018-04-12T17:46:49.732Z,6.67
2018-04-12T17:52:40.456Z,7.15
2018-04-12T17:58:31.119Z,14.74
2018-04-12T18:04:21.721Z,21.34
2018-04-12T18:10:12.320Z,6.54
2018-04-12T18:16:02.924Z,7.2
2018-04-12T18:21:53.645Z,7.92
2018-04-12T18:27:44.248Z,7.21
2018-04-12T18:33:34.977Z,8.27
2018-04-12T18:39:25.626Z,9.06
2018-04-12T18:45:16.386Z,10.36
2018-04-12T18:51:07.014Z,12.96
2018-04-12T18:56:57.663Z,13.34
2018-04-12T19:02:48.296Z,12.7
2018-04-12T19:08:38.989Z,11.31
2018-04-12T19:14:29.638Z,9.45
2018-04-12T19:20:20.331Z,9.03
2018-04-12T19:26:11.040Z,8.74
2018-04-12T19:32:01.726Z,9.38
2018-04-12T19:37:52.405Z,10.89
2018-04-12T19:43:43.021Z,9.13
2018-04-12T19:49:33.738Z,10.3
2018-04-12T19:55:24.420Z,9.8
2018-04-12T20:01:15.038Z,10.05
2018-04-12T20:07:05.725Z,8.77
2018-04-12T20:12:56.325Z,9.43
2018-04-12T20:18:47.020Z,13.56
2018-04-12T20:24:37.638Z,13.45
2018-04-12T20:30:28.372Z,12.62
2018-04-12T20:36:19.045Z,12.25
2018-04-12T20:42:09.629Z,12.18
2018-04-12T20:48:00.290Z,14.91
2018-04-12T20:53:50.947Z,13.26
2018-04-12T20:59:41.628Z,11.71
2018-04-12T21:05:32.412Z,10.86
2018-04-12T21:11:22.959Z,12.29
2018-04-12T21:17:13.652Z,12.94
2018-04-12T21:23:04.281Z,12.8
2018-04-12T21:28:54.939Z,11.84
2018-04-12T21:34:45.587Z,12.37
2018-04-12T21:40:36.259Z,13.82
2018-04-12T21:46:26.987Z,13.37
2018-04-12T21:52:17.566Z,13.99
2018-04-12T21:58:08.243Z,12.87
2018-04-12T22:03:58.924Z,13.41
2018-04-12T22:09:49.560Z,14.9
2018-04-12T22:15:40.234Z,14.92
2018-04-12T22:21:30.925Z,14.07
2018-04-12T22:27:21.553Z,13.16
2018-04-12T22:33:12.184Z,14.24
2018-04-12T22:39:02.907Z,13.9
2018-04-12T22:44:53.546Z,14.34
2018-04-12T22:50:44.223Z,11.57
2018-04-12T22:56:34.834Z,11.94
2018-04-12T23:02:25.530Z,11.65
2018-04-12T23:08:16.204Z,13.39
2018-04-12T23:14:06.869Z,12.74
2018-04-12T23:19:57.517Z,11.97
2018-04-12T23:25:48.179Z,11.79
2018-04-12T23:31:38.873Z,10.71
2018-04-12T23:37:29.500Z,11.31
2018-04-12T23:43:20.173Z,11.86
2018-04-12T23:49:10.830Z,11.46
2018-04-12T23:55:01.482Z,11.72
